Time;durP1;ratioP1;P1;durP2;ratioP2;P2;SDS_P1;SDS_P2;PMS_P1;PMS_P2;Temp;Humidity;BMP_temperature;BMP_pressure;BME280_temperature;BME280_humidity;BME280_pressure;Samples;Min_cycle;Max_cycle;Signal;HPM_P1;HPM_P2
2020/12/18 00:01:28;;;;;;;67.85;14.45;;;3.10;99.90;;;;;;5052241;28;20300;-66
2020/12/18 00:03:55;;;;;;;81.90;16.55;;;3.10;99.90;;;;;;5052491;28;20205;-66
2020/12/18 00:06:23;;;;;;;73.47;15.27;;;3.10;99.90;;;;;;5052352;28;20217;-65
2020/12/18 00:08:49;;;;;;;68.78;14.13;;;3.10;99.90;;;;;;5052335;28;20236;-66
2020/12/18 00:11:23;;;;;;;75.90;15.38;;;3.10;99.90;;;;;;5052196;28;20209;-66
2020/12/18 00:13:51;;;;;;;68.43;13.85;;;3.00;99.90;;;;;;5052278;28;20216;-66
2020/12/18 00:16:18;;;;;;;68.07;13.48;;;3.00;99.90;;;;;;5052251;28;20217;-66
2020/12/18 00:18:45;;;;;;;67.22;13.90;;;3.00;99.90;;;;;;5052072;28;20231;-67
2020/12/18 00:21:11;;;;;;;70.10;14.15;;;3.00;99.90;;;;;;5051920;28;20205;-66
2020/12/18 00:23:37;;;;;;;72.43;15.40;;;2.90;99.90;;;;;;5052157;28;20206;-66
2020/12/18 00:26:04;;;;;;;72.57;14.80;;;2.90;99.90;;;;;;5052357;28;20256;-66
2020/12/18 00:28:30;;;;;;;68.75;14.20;;;2.90;99.90;;;;;;5052072;28;20274;-66
2020/12/18 00:30:57;;;;;;;69.07;14.60;;;2.90;99.90;;;;;;5051960;28;20205;-66
2020/12/18 00:33:24;;;;;;;72.38;15.73;;;2.90;99.90;;;;;;5051828;28;20210;-66
2020/12/18 00:35:50;;;;;;;68.38;14.00;;;3.00;99.90;;;;;;5051930;28;20584;-66
2020/12/18 00:38:17;;;;;;;67.22;13.73;;;3.00;99.90;;;;;;5051815;28;20493;-66
2020/12/18 00:40:45;;;;;;;69.32;14.50;;;3.00;99.90;;;;;;5051795;28;20585;-66
2020/12/18 00:43:11;;;;;;;68.80;13.38;;;2.90;99.90;;;;;;5051591;28;20744;-65
2020/12/18 00:45:38;;;;;;;68.28;12.98;;;2.90;99.90;;;;;;5051801;28;20217;-66
2020/12/18 00:48:05;;;;;;;66.82;12.60;;;2.90;99.90;;;;;;5051643;28;20221;-66
2020/12/18 00:50:33;;;;;;;70.53;14.60;;;2.90;99.90;;;;;;5051471;28;20297;-66
2020/12/18 00:52:59;;;;;;;67.10;12.50;;;2.90;99.90;;;;;;5052055;28;20741;-66
2020/12/18 00:55:25;;;;;;;66.18;12.80;;;2.90;99.90;;;;;;5051635;28;20214;-66
2020/12/18 00:57:52;;;;;;;69.38;13.23;;;2.80;99.90;;;;;;5051784;28;20229;-66
2020/12/18 01:00:18;;;;;;;65.45;11.73;;;2.80;99.90;;;;;;5051060;28;20236;-67
2020/12/18 01:02:45;;;;;;;69.85;14.50;;;2.70;99.90;;;;;;5051308;28;20202;-67
2020/12/18 01:05:12;;;;;;;65.00;12.18;;;2.70;99.90;;;;;;5051319;28;20213;-67
2020/12/18 01:07:38;;;;;;;67.00;11.68;;;2.60;99.90;;;;;;5051601;28;20206;-66
2020/12/18 01:10:05;;;;;;;63.67;11.40;;;2.60;99.90;;;;;;5051297;28;20240;-66
2020/12/18 01:12:32;;;;;;;68.43;13.10;;;2.50;99.90;;;;;;5051389;28;20205;-67
2020/12/18 01:14:58;;;;;;;68.05;12.23;;;2.50;99.90;;;;;;5051353;28;20247;-66
2020/12/18 01:17:24;;;;;;;67.15;12.63;;;2.40;99.90;;;;;;5050929;28;20205;-66
2020/12/18 01:19:51;;;;;;;68.88;13.52;;;2.40;99.90;;;;;;5051441;28;20243;-67
2020/12/18 01:22:18;;;;;;;67.13;12.88;;;2.30;99.90;;;;;;5051247;28;20222;-67
2020/12/18 01:24:44;;;;;;;72.18;15.02;;;2.30;99.90;;;;;;5051359;28;20209;-66
2020/12/18 01:27:10;;;;;;;66.80;13.25;;;2.30;99.90;;;;;;5051204;28;20205;-67
2020/12/18 01:29:37;;;;;;;68.70;13.18;;;2.30;99.90;;;;;;5050986;28;20260;-66
2020/12/18 01:32:03;;;;;;;67.93;12.57;;;2.20;99.90;;;;;;5050739;28;20245;-66
2020/12/18 01:34:29;;;;;;;66.97;13.00;;;2.20;99.90;;;;;;5051505;28;20217;-66
2020/12/18 01:36:56;;;;;;;70.95;13.65;;;2.30;99.90;;;;;;5051157;28;20672;-66
2020/12/18 01:39:23;;;;;;;69.22;13.93;;;2.30;99.90;;;;;;5050737;28;20237;-66
2020/12/18 01:41:49;;;;;;;67.50;13.82;;;2.40;99.90;;;;;;5051162;28;20207;-65
2020/12/18 01:44:15;;;;;;;68.72;14.30;;;2.40;99.90;;;;;;5050870;28;20212;-66
2020/12/18 01:46:42;;;;;;;69.63;13.55;;;2.50;99.90;;;;;;5051102;28;20205;-66
2020/12/18 01:49:08;;;;;;;69.82;13.13;;;2.50;99.90;;;;;;5054740;28;20704;-65
2020/12/18 01:51:34;;;;;;;68.63;12.05;;;2.60;99.90;;;;;;5061405;28;20633;-66
2020/12/18 01:54:02;;;;;;;66.57;12.70;;;2.60;99.90;;;;;;5054286;28;20292;-67
2020/12/18 01:56:30;;;;;;;69.53;13.25;;;2.60;99.90;;;;;;5055087;28;20264;-67
2020/12/18 01:58:58;;;;;;;75.93;14.05;;;2.60;99.90;;;;;;5054679;28;20226;-66
2020/12/18 02:01:24;;;;;;;66.10;12.82;;;2.60;99.90;;;;;;5055199;28;20216;-66
2020/12/18 02:03:51;;;;;;;66.45;12.65;;;2.60;99.90;;;;;;5055082;28;20291;-66
2020/12/18 02:06:18;;;;;;;73.75;14.00;;;2.60;99.90;;;;;;5054762;28;20638;-67
2020/12/18 02:08:45;;;;;;;67.72;13.05;;;2.50;99.90;;;;;;5054905;28;20226;-66
2020/12/18 02:11:13;;;;;;;69.80;13.82;;;2.50;99.90;;;;;;5054519;28;20388;-66
2020/12/18 02:13:40;;;;;;;69.68;14.35;;;2.50;99.90;;;;;;5054544;28;20228;-66
2020/12/18 02:16:07;;;;;;;72.43;14.25;;;2.50;99.90;;;;;;5054700;28;20589;-67
2020/12/18 02:18:33;;;;;;;72.30;15.35;;;2.60;99.90;;;;;;5054305;28;20804;-66
2020/12/18 02:21:03;;;;;;;71.30;15.27;;;2.60;99.90;;;;;;5054420;28;20391;-67
2020/12/18 02:23:30;;;;;;;71.75;13.75;;;2.60;99.90;;;;;;5054507;28;20206;-66
2020/12/18 02:26:05;;;;;;;71.00;13.63;;;2.70;99.90;;;;;;5045250;28;20207;-66
2020/12/18 02:28:32;;;;;;;69.13;13.43;;;2.70;99.90;;;;;;5034342;28;20261;-67
2020/12/18 02:30:58;;;;;;;68.03;13.80;;;2.60;99.90;;;;;;5034261;28;20206;-66
2020/12/18 02:33:25;;;;;;;68.43;13.30;;;2.60;99.90;;;;;;5034264;28;20221;-66
2020/12/18 02:35:51;;;;;;;71.25;14.20;;;2.60;99.90;;;;;;5033692;28;20241;-66
2020/12/18 02:38:17;;;;;;;69.13;14.70;;;2.60;99.90;;;;;;5034053;28;20241;-67
2020/12/18 02:40:44;;;;;;;68.68;14.00;;;2.60;99.90;;;;;;5034223;28;20309;-67
2020/12/18 02:43:11;;;;;;;71.40;13.77;;;2.60;99.90;;;;;;5034272;28;20238;-67
2020/12/18 02:45:37;;;;;;;75.30;14.18;;;2.70;99.90;;;;;;5034075;28;20226;-66
2020/12/18 02:48:04;;;;;;;70.55;12.18;;;2.70;99.90;;;;;;5034100;28;20716;-66
2020/12/18 02:50:30;;;;;;;66.97;12.35;;;2.70;99.90;;;;;;5033719;28;20217;-66
2020/12/18 02:52:57;;;;;;;69.28;13.35;;;2.60;99.90;;;;;;5034157;28;20270;-66
2020/12/18 02:55:23;;;;;;;67.25;13.35;;;2.70;99.90;;;;;;5034102;28;20212;-66
2020/12/18 02:57:49;;;;;;;67.65;12.18;;;2.70;99.90;;;;;;5033868;28;20843;-65
2020/12/18 03:00:16;;;;;;;66.45;13.30;;;2.80;99.90;;;;;;5033490;28;20229;-66
2020/12/18 03:02:43;;;;;;;71.50;14.70;;;2.80;99.90;;;;;;5033669;28;20238;-67
2020/12/18 03:05:09;;;;;;;69.00;13.85;;;2.80;99.90;;;;;;5032681;28;20477;-67
2020/12/18 03:07:36;;;;;;;71.22;14.32;;;2.90;99.90;;;;;;5033597;28;20295;-66
2020/12/18 03:10:02;;;;;;;65.68;12.50;;;2.80;99.90;;;;;;5033380;28;20213;-66
2020/12/18 03:12:28;;;;;;;71.13;15.50;;;2.80;99.90;;;;;;5033736;28;20559;-67
2020/12/18 03:14:55;;;;;;;70.13;13.40;;;2.80;99.90;;;;;;5033544;28;20637;-66
2020/12/18 03:17:22;;;;;;;70.28;14.45;;;2.80;99.90;;;;;;5033517;28;20203;-66
2020/12/18 03:19:48;;;;;;;69.85;13.77;;;2.70;99.90;;;;;;5032914;28;20234;-66
2020/12/18 03:22:14;;;;;;;68.75;12.77;;;2.70;99.90;;;;;;5033616;28;20214;-66
2020/12/18 03:24:41;;;;;;;69.78;14.55;;;2.70;99.90;;;;;;5033521;28;20255;-66
2020/12/18 03:27:07;;;;;;;68.93;14.63;;;2.70;99.90;;;;;;5033343;28;20217;-67
2020/12/18 03:29:33;;;;;;;71.68;13.85;;;2.70;99.90;;;;;;5032995;28;20328;-67
2020/12/18 03:31:59;;;;;;;68.65;13.32;;;2.70;99.90;;;;;;5033109;28;20306;-67
2020/12/18 03:34:26;;;;;;;67.70;13.75;;;2.80;99.90;;;;;;5033287;28;20202;-67
2020/12/18 03:36:53;;;;;;;68.72;13.85;;;2.90;99.90;;;;;;5033250;28;20256;-66
2020/12/18 03:39:19;;;;;;;72.40;14.30;;;2.90;99.90;;;;;;5033045;28;20230;-66
2020/12/18 03:41:45;;;;;;;71.05;13.25;;;3.00;99.90;;;;;;5032818;28;20263;-66
2020/12/18 03:44:12;;;;;;;67.68;12.82;;;3.00;99.90;;;;;;5033063;28;20300;-66
2020/12/18 03:47:17;;;;;;;67.90;12.80;;;3.00;99.90;;;;;;5033657;28;20217;-66
2020/12/18 03:49:45;;;;;;;65.75;11.55;;;3.00;99.90;;;;;;5044384;28;20312;-67
2020/12/18 03:52:11;;;;;;;65.25;11.85;;;3.00;99.90;;;;;;5034460;28;20245;-66
2020/12/18 03:54:37;;;;;;;69.15;13.32;;;3.00;99.90;;;;;;5032834;28;20210;-66
2020/12/18 03:57:03;;;;;;;65.80;12.65;;;3.00;99.90;;;;;;5032632;28;20681;-67
2020/12/18 03:59:30;;;;;;;67.55;12.77;;;3.00;99.90;;;;;;5032278;28;20704;-66
2020/12/18 04:01:56;;;;;;;65.30;11.50;;;3.10;99.90;;;;;;5032633;28;20216;-66
2020/12/18 04:04:22;;;;;;;68.30;13.50;;;3.10;99.90;;;;;;5032546;28;20210;-67
2020/12/18 04:06:50;;;;;;;66.60;12.70;;;3.10;99.90;;;;;;5032693;28;20206;-67
2020/12/18 04:09:16;;;;;;;66.63;12.48;;;3.10;99.90;;;;;;5032482;28;20228;-67
2020/12/18 04:11:42;;;;;;;65.57;12.50;;;3.20;99.90;;;;;;5032205;28;20230;-66
2020/12/18 04:14:09;;;;;;;65.35;11.40;;;3.20;99.90;;;;;;5032691;28;20272;-66
2020/12/18 04:16:35;;;;;;;66.25;11.65;;;3.30;99.90;;;;;;5032316;28;20202;-67
2020/12/18 04:19:01;;;;;;;68.75;13.05;;;3.20;99.90;;;;;;5032180;28;20234;-67
2020/12/18 04:21:27;;;;;;;66.65;12.27;;;3.20;99.90;;;;;;5032231;28;20217;-66
2020/12/18 04:23:55;;;;;;;66.72;12.23;;;3.20;99.90;;;;;;5032227;28;20207;-66
2020/12/18 04:26:21;;;;;;;68.03;13.55;;;3.20;99.90;;;;;;5031948;28;20214;-67
2020/12/18 04:28:47;;;;;;;66.28;12.50;;;3.20;99.90;;;;;;5032366;28;20819;-67
2020/12/18 04:31:13;;;;;;;67.15;13.60;;;3.20;99.90;;;;;;5032330;28;20237;-66
2020/12/18 04:33:40;;;;;;;65.97;13.60;;;3.20;99.90;;;;;;5031999;28;20210;-67
2020/12/18 04:36:06;;;;;;;67.70;12.45;;;3.20;99.90;;;;;;5031715;28;20705;-66
2020/12/18 04:38:33;;;;;;;67.35;12.82;;;3.20;99.90;;;;;;5031933;28;20705;-66
2020/12/18 04:41:00;;;;;;;65.80;12.02;;;3.20;99.90;;;;;;5031561;28;20230;-66
2020/12/18 04:43:26;;;;;;;66.75;13.38;;;3.20;99.90;;;;;;5032113;28;20301;-66
2020/12/18 04:45:56;;;;;;;68.53;13.63;;;3.10;99.90;;;;;;5031341;28;20677;-66
2020/12/18 04:48:25;;;;;;;65.32;12.02;;;3.20;99.90;;;;;;5031515;28;20650;-66
2020/12/18 04:50:55;;;;;;;65.40;12.30;;;3.20;99.90;;;;;;5031740;28;20205;-66
2020/12/18 04:53:28;;;;;;;67.65;12.23;;;3.20;99.90;;;;;;5031492;28;20233;-66
2020/12/18 04:55:56;;;;;;;67.72;12.75;;;3.20;99.90;;;;;;5031746;28;20228;-67
2020/12/18 04:58:24;;;;;;;67.10;12.82;;;3.10;99.90;;;;;;5031753;28;20315;-67
2020/12/18 05:00:54;;;;;;;65.70;11.98;;;3.00;99.90;;;;;;5031514;28;20245;-66
2020/12/18 05:03:22;;;;;;;65.80;11.55;;;3.00;99.90;;;;;;5031839;28;20206;-67
2020/12/18 05:05:48;;;;;;;67.90;11.82;;;2.90;99.90;;;;;;5031373;28;20213;-67
2020/12/18 05:08:15;;;;;;;66.85;11.70;;;2.80;99.90;;;;;;5031560;28;20222;-66
2020/12/18 05:10:41;;;;;;;66.18;12.02;;;2.70;99.90;;;;;;5031372;28;20693;-67
2020/12/18 05:13:08;;;;;;;65.70;11.95;;;2.70;99.90;;;;;;5031872;28;20613;-67
2020/12/18 05:15:35;;;;;;;63.70;11.50;;;2.60;99.90;;;;;;5031015;28;20206;-67
2020/12/18 05:18:01;;;;;;;69.40;13.05;;;2.60;99.90;;;;;;5031256;28;20241;-66
2020/12/18 05:20:28;;;;;;;65.20;12.00;;;2.50;99.90;;;;;;5031040;28;20226;-66
2020/12/18 05:22:55;;;;;;;66.03;11.13;;;2.50;99.90;;;;;;5031053;28;20253;-66
2020/12/18 05:25:21;;;;;;;64.68;10.80;;;2.40;99.90;;;;;;5030752;28;20214;-67
2020/12/18 05:27:50;;;;;;;68.00;12.07;;;2.40;99.90;;;;;;5029592;28;20230;-66
2020/12/18 05:30:22;;;;;;;65.85;12.60;;;2.40;99.90;;;;;;5030785;28;20234;-66
2020/12/18 05:32:53;;;;;;;67.30;12.90;;;2.40;99.90;;;;;;5030313;28;20265;-65
2020/12/18 05:35:19;;;;;;;65.70;11.90;;;2.30;99.90;;;;;;5030673;28;20210;-66
2020/12/18 05:37:46;;;;;;;68.88;14.00;;;2.30;99.90;;;;;;5030246;28;20210;-66
2020/12/18 05:40:12;;;;;;;65.32;12.05;;;2.30;99.90;;;;;;5030158;28;20226;-66
2020/12/18 05:42:43;;;;;;;67.40;13.63;;;2.20;99.90;;;;;;5030527;28;20624;-66
2020/12/18 05:45:15;;;;;;;69.30;13.95;;;2.20;99.90;;;;;;5032051;28;20241;-66
2020/12/18 05:47:56;;;;;;;67.40;12.63;;;2.20;99.90;;;;;;5034924;28;20210;-66
2020/12/18 05:50:27;;;;;;;69.25;14.95;;;2.20;99.90;;;;;;5030821;28;20202;-66
2020/12/18 05:52:58;;;;;;;69.30;14.43;;;2.10;99.90;;;;;;5030489;28;20202;-67
2020/12/18 05:55:25;;;;;;;68.50;14.43;;;2.10;99.90;;;;;;5031172;28;20228;-66
2020/12/18 05:57:53;;;;;;;68.03;14.10;;;2.00;99.90;;;;;;5030658;28;20226;-67
2020/12/18 06:00:22;;;;;;;68.50;13.88;;;2.00;99.90;;;;;;5030798;28;20272;-67
2020/12/18 06:02:56;;;;;;;69.88;14.90;;;1.90;99.90;;;;;;5031113;28;20588;-67
2020/12/18 06:05:24;;;;;;;70.82;15.98;;;2.00;99.90;;;;;;5031195;28;20209;-68
2020/12/18 06:07:51;;;;;;;72.10;13.88;;;2.00;99.90;;;;;;5030669;28;20713;-67
2020/12/18 06:10:21;;;;;;;69.22;13.90;;;2.00;99.90;;;;;;5030482;28;20206;-67
2020/12/18 06:12:48;;;;;;;69.97;13.65;;;2.00;99.90;;;;;;5030899;28;20250;-66
2020/12/18 06:15:18;;;;;;;65.22;12.65;;;2.10;99.90;;;;;;5030679;28;20333;-66
2020/12/18 06:17:46;;;;;;;68.22;12.90;;;2.20;99.90;;;;;;5030586;28;20206;-66
2020/12/18 06:20:15;;;;;;;66.70;12.68;;;2.20;99.90;;;;;;5030526;28;20384;-67
2020/12/18 06:22:59;;;;;;;68.85;14.10;;;2.30;99.90;;;;;;5030379;28;20297;-66
2020/12/18 06:25:25;;;;;;;71.93;15.48;;;2.30;99.90;;;;;;5031020;28;20217;-67
2020/12/18 06:27:56;;;;;;;71.65;15.25;;;2.40;99.90;;;;;;5030754;28;20273;-66
2020/12/18 06:30:23;;;;;;;70.88;15.32;;;2.40;99.90;;;;;;5030807;28;20260;-68
2020/12/18 06:32:50;;;;;;;66.68;13.25;;;2.40;99.90;;;;;;5030443;28;20620;-69
2020/12/18 06:35:29;;;;;;;68.60;13.48;;;2.50;99.90;;;;;;5030679;28;20214;-66
2020/12/18 06:37:55;;;;;;;68.63;14.30;;;2.50;99.90;;;;;;5030373;28;20230;-68
2020/12/18 06:40:29;;;;;;;71.43;13.50;;;2.60;99.90;;;;;;5034127;28;20328;-67
2020/12/18 06:42:57;;;;;;;66.90;13.48;;;2.60;99.90;;;;;;5034144;28;20242;-67
2020/12/18 06:45:24;;;;;;;68.55;13.65;;;2.70;99.90;;;;;;5033979;28;20211;-66
2020/12/18 06:47:51;;;;;;;68.43;14.75;;;2.70;99.90;;;;;;5033901;28;20312;-66
2020/12/18 06:50:18;;;;;;;71.60;15.27;;;2.70;99.90;;;;;;5034058;28;20209;-68
2020/12/18 06:52:52;;;;;;;68.78;13.93;;;2.70;99.90;;;;;;5034157;28;20210;-68
2020/12/18 06:55:35;;;;;;;67.93;13.90;;;2.70;99.90;;;;;;5033791;28;20256;-66
2020/12/18 06:58:19;;;;;;;72.88;14.77;;;2.70;99.90;;;;;;5033929;28;20226;-68
2020/12/18 07:00:53;;;;;;;69.22;14.98;;;2.70;99.90;;;;;;5033809;28;20226;-67
2020/12/18 07:03:43;;;;;;;66.95;12.73;;;2.70;99.90;;;;;;5033809;28;20252;-68
2020/12/18 07:06:11;;;;;;;70.15;14.15;;;2.70;99.90;;;;;;5033685;28;20701;-67
2020/12/18 07:08:40;;;;;;;67.53;11.80;;;2.70;99.90;;;;;;5033565;28;20237;-67
2020/12/18 07:11:09;;;;;;;69.03;15.15;;;2.70;99.90;;;;;;5033570;28;20595;-67
2020/12/18 07:13:36;;;;;;;70.32;15.07;;;2.70;99.90;;;;;;5033577;28;20677;-68
2020/12/18 07:16:05;;;;;;;71.82;15.10;;;2.70;99.90;;;;;;5033629;28;20217;-67
2020/12/18 07:18:34;;;;;;;73.32;16.27;;;2.70;99.90;;;;;;5033674;28;20230;-67
2020/12/18 07:21:01;;;;;;;70.95;14.40;;;2.70;99.90;;;;;;5033103;28;20234;-68
2020/12/18 07:23:29;;;;;;;71.15;15.45;;;2.70;99.90;;;;;;5033248;28;20259;-68
2020/12/18 07:25:57;;;;;;;71.20;14.80;;;2.70;99.90;;;;;;5033517;28;20216;-67
2020/12/18 07:28:25;;;;;;;68.63;14.07;;;2.70;99.90;;;;;;5033237;28;20800;-67
2020/12/18 07:30:52;;;;;;;69.40;14.10;;;2.70;99.90;;;;;;5033123;28;20674;-67
2020/12/18 07:33:19;;;;;;;72.63;14.77;;;2.70;99.90;;;;;;5033248;28;20653;-67
2020/12/18 07:35:48;;;;;;;72.78;15.02;;;2.70;99.90;;;;;;5033150;28;20580;-67
2020/12/18 07:38:19;;;;;;;70.15;14.68;;;2.70;99.90;;;;;;5033193;28;20303;-67
2020/12/18 07:40:48;;;;;;;69.90;14.00;;;2.70;99.90;;;;;;5032876;28;20745;-67
2020/12/18 07:43:16;;;;;;;71.38;15.45;;;2.70;99.90;;;;;;5033646;28;20202;-67
2020/12/18 07:45:44;;;;;;;75.68;15.18;;;2.70;99.90;;;;;;5035858;28;20225;-67
2020/12/18 07:48:15;;;;;;;69.93;15.70;;;2.70;99.90;;;;;;5033738;28;20271;-66
2020/12/18 07:50:42;;;;;;;70.15;14.73;;;2.80;99.90;;;;;;5032236;28;20567;-67
2020/12/18 07:53:10;;;;;;;75.45;17.25;;;2.80;99.90;;;;;;5033027;28;20214;-67
2020/12/18 07:55:36;;;;;;;72.20;16.77;;;2.80;99.90;;;;;;5032941;28;20232;-67
2020/12/18 07:58:03;;;;;;;76.68;19.17;;;2.90;99.90;;;;;;5033109;28;20230;-67
2020/12/18 08:00:31;;;;;;;75.88;17.15;;;2.90;99.90;;;;;;5032329;28;20240;-67
2020/12/18 08:02:58;;;;;;;72.28;17.33;;;3.00;99.90;;;;;;5032553;28;20238;-67
2020/12/18 08:05:24;;;;;;;75.45;17.33;;;3.10;99.90;;;;;;5032811;28;20206;-67
2020/12/18 08:07:51;;;;;;;72.47;17.35;;;3.20;99.90;;;;;;5032702;28;20329;-67
2020/12/18 08:10:18;;;;;;;73.35;16.55;;;3.30;99.90;;;;;;5032276;28;20689;-67
2020/12/18 08:12:50;;;;;;;73.47;17.35;;;3.40;99.90;;;;;;5032181;28;20210;-67
2020/12/18 08:15:16;;;;;;;77.43;17.23;;;3.40;99.90;;;;;;5032312;28;20807;-67
2020/12/18 08:17:45;;;;;;;74.45;16.52;;;3.50;99.90;;;;;;5032411;28;20206;-67
2020/12/18 08:20:14;;;;;;;74.63;16.48;;;3.60;99.90;;;;;;5032356;28;20234;-67
2020/12/18 08:22:43;;;;;;;75.05;17.13;;;3.60;99.90;;;;;;5032430;28;20234;-67
2020/12/18 08:25:12;;;;;;;74.10;17.10;;;3.70;99.90;;;;;;5032422;28;20209;-67
2020/12/18 08:27:45;;;;;;;73.45;16.88;;;3.80;99.90;;;;;;5032068;28;20213;-66
2020/12/18 08:30:15;;;;;;;74.22;16.88;;;3.90;99.90;;;;;;5031979;28;20206;-67
2020/12/18 08:32:47;;;;;;;70.95;15.32;;;4.00;99.90;;;;;;5031946;28;20212;-66
2020/12/18 08:35:20;;;;;;;69.80;15.10;;;4.10;99.90;;;;;;5032588;28;20237;-67
2020/12/18 08:37:48;;;;;;;72.50;16.05;;;4.20;99.90;;;;;;5031925;28;20592;-67
2020/12/18 08:40:20;;;;;;;71.60;15.40;;;4.30;99.90;;;;;;5031641;28;20226;-67
2020/12/18 08:42:59;;;;;;;72.35;16.52;;;4.30;99.90;;;;;;5032402;28;20217;-67
2020/12/18 08:45:26;;;;;;;74.68;17.55;;;4.40;99.90;;;;;;5032165;28;20209;-67
2020/12/18 08:47:53;;;;;;;74.38;17.17;;;4.50;99.90;;;;;;5032027;28;20226;-67
2020/12/18 08:50:20;;;;;;;76.72;18.52;;;4.60;99.90;;;;;;5031621;28;20202;-67
2020/12/18 08:52:47;;;;;;;73.63;18.15;;;4.60;99.90;;;;;;5031652;28;20217;-67
2020/12/18 08:55:14;;;;;;;77.43;16.65;;;4.60;99.90;;;;;;5031722;28;20594;-67
2020/12/18 08:57:41;;;;;;;73.90;17.15;;;4.60;99.90;;;;;;5031963;28;20242;-67
2020/12/18 09:00:15;;;;;;;76.90;17.98;;;4.60;99.90;;;;;;5031507;28;20265;-67
2020/12/18 09:02:43;;;;;;;74.05;16.50;;;4.60;99.90;;;;;;5031235;28;20558;-67
2020/12/18 09:05:23;;;;;;;74.95;17.30;;;4.60;99.90;;;;;;5031514;28;20593;-67
2020/12/18 09:07:52;;;;;;;71.85;16.30;;;4.70;99.90;;;;;;5031633;28;20233;-67
2020/12/18 09:10:41;;;;;;;71.15;15.77;;;4.80;99.90;;;;;;5031790;28;20230;-68
2020/12/18 09:13:16;;;;;;;70.55;16.90;;;4.80;99.90;;;;;;5031780;28;20272;-67
2020/12/18 09:15:45;;;;;;;72.03;15.77;;;4.90;99.90;;;;;;5031455;28;20216;-67
2020/12/18 09:18:13;;;;;;;73.22;17.13;;;4.90;99.90;;;;;;5032277;28;20245;-68
2020/12/18 09:20:42;;;;;;;71.68;16.40;;;5.00;99.90;;;;;;5031773;28;20356;-68
2020/12/18 09:23:11;;;;;;;74.97;16.95;;;5.10;99.90;;;;;;5031662;28;20309;-67
2020/12/18 09:25:41;;;;;;;74.50;18.05;;;5.20;99.90;;;;;;5031885;28;20241;-68
2020/12/18 09:28:13;;;;;;;71.50;16.50;;;5.30;99.90;;;;;;5031652;28;20237;-68
2020/12/18 09:30:40;;;;;;;72.80;15.57;;;5.40;99.90;;;;;;5031658;28;20202;-68
2020/12/18 09:33:25;;;;;;;74.10;16.15;;;5.40;99.90;;;;;;5031682;28;20207;-68
2020/12/18 09:35:54;;;;;;;69.53;15.05;;;5.60;99.90;;;;;;5031892;28;20260;-68
2020/12/18 09:38:22;;;;;;;71.80;16.17;;;5.70;99.90;;;;;;5031727;28;20587;-68
2020/12/18 09:40:49;;;;;;;73.35;17.15;;;5.80;99.90;;;;;;5031876;28;20229;-67
2020/12/18 09:43:15;;;;;;;76.07;15.98;;;5.90;99.90;;;;;;5031847;28;20580;-67
2020/12/18 09:45:42;;;;;;;70.38;13.68;;;6.00;99.90;;;;;;5037130;28;20234;-68
2020/12/18 09:48:08;;;;;;;73.10;17.02;;;6.00;99.90;;;;;;5033309;28;20226;-67
2020/12/18 09:50:34;;;;;;;73.25;15.55;;;6.00;99.90;;;;;;5030991;28;20218;-68
2020/12/18 09:53:01;;;;;;;70.57;14.38;;;6.20;99.90;;;;;;5031045;28;20206;-68
2020/12/18 09:55:28;;;;;;;70.47;14.85;;;6.40;99.90;;;;;;5030851;28;20214;-68
2020/12/18 09:57:54;;;;;;;71.38;15.55;;;6.70;99.90;;;;;;5031370;28;20285;-67
2020/12/18 10:00:20;;;;;;;70.70;15.80;;;7.00;99.90;;;;;;5030829;28;20646;-68
2020/12/18 10:02:47;;;;;;;69.80;15.67;;;7.40;99.90;;;;;;5030890;28;20456;-68
2020/12/18 10:05:13;;;;;;;67.80;13.93;;;7.90;99.90;;;;;;5030888;28;20458;-68
2020/12/18 10:07:39;;;;;;;70.97;14.53;;;8.50;99.90;;;;;;5031066;28;20500;-68
2020/12/18 10:10:06;;;;;;;70.83;15.23;;;9.40;99.90;;;;;;5030673;28;21153;-68
2020/12/18 10:12:33;;;;;;;67.07;13.57;;;10.40;99.90;;;;;;5031171;28;20506;-68
2020/12/18 10:15:00;;;;;;;64.37;11.80;;;11.40;99.90;;;;;;5034359;28;20452;-68
2020/12/18 10:17:26;;;;;;;66.67;13.07;;;12.40;59.90;;;;;;5034526;28;20453;-68
2020/12/18 10:19:52;;;;;;;68.27;11.57;;;13.20;12.50;;;;;;5034605;28;20484;-67
2020/12/18 10:22:19;;;;;;;64.00;11.13;;;14.00;1.00;;;;;;5034131;28;20835;-67
2020/12/18 10:24:45;;;;;;;72.87;12.63;;;14.90;1.00;;;;;;5034828;28;20467;-67
2020/12/18 10:27:13;;;;;;;66.40;11.63;;;15.70;1.00;;;;;;5034637;28;20447;-67
2020/12/18 10:29:39;;;;;;;62.97;9.67;;;16.50;1.00;;;;;;5034938;28;20468;-68
2020/12/18 10:32:06;;;;;;;64.17;11.40;;;17.10;1.00;;;;;;5034083;28;20454;-67
2020/12/18 10:34:32;;;;;;;62.97;10.53;;;17.70;1.00;;;;;;5034547;28;20739;-67
2020/12/18 10:36:59;;;;;;;62.87;10.17;;;18.30;1.00;;;;;;5034210;28;20513;-66
2020/12/18 10:39:25;;;;;;;64.03;10.00;;;18.90;1.00;;;;;;5034825;28;20473;-64
2020/12/18 10:41:52;;;;;;;63.90;10.50;;;19.30;1.00;;;;;;5034263;28;20518;-68
2020/12/18 10:44:21;;;;;;;64.27;11.00;;;19.50;1.00;;;;;;5034245;28;20453;-65
2020/12/18 10:46:48;;;;;;;63.80;10.90;;;19.70;1.00;;;;;;5034485;28;20888;-65
2020/12/18 10:49:15;;;;;;;61.43;9.57;;;19.90;1.00;;;;;;5034025;28;20470;-66
2020/12/18 10:51:42;;;;;;;63.47;10.03;;;20.30;1.00;;;;;;5033775;28;20449;-66
2020/12/18 10:54:09;;;;;;;63.27;10.03;;;20.60;1.00;;;;;;5034154;28;20449;-66
2020/12/18 10:56:40;;;;;;;62.50;9.60;;;21.00;1.00;;;;;;5034341;28;20451;-65
2020/12/18 10:59:07;;;;;;;63.70;10.63;;;21.60;1.00;;;;;;5034011;28;20485;-66
2020/12/18 11:01:34;;;;;;;63.80;10.07;;;22.10;1.00;;;;;;5033734;28;20486;-65
2020/12/18 11:04:00;;;;;;;64.47;10.40;;;22.40;1.00;;;;;;5033636;28;20455;-66
2020/12/18 11:06:26;;;;;;;62.90;10.83;;;22.30;1.00;;;;;;5033798;28;21228;-66
2020/12/18 11:08:53;;;;;;;61.57;9.67;;;22.30;1.00;;;;;;5033936;28;20471;-66
2020/12/18 11:11:19;;;;;;;61.70;10.30;;;22.30;1.00;;;;;;5033390;28;20951;-66
2020/12/18 11:13:46;;;;;;;64.20;10.90;;;22.50;1.00;;;;;;5033531;28;20457;-65
2020/12/18 11:16:12;;;;;;;61.93;10.33;;;22.80;1.00;;;;;;5034034;28;20852;-66
2020/12/18 11:18:39;;;;;;;64.73;10.07;;;23.30;1.00;;;;;;5033292;28;20584;-65
2020/12/18 11:21:07;;;;;;;62.60;9.30;;;23.80;1.00;;;;;;5033982;28;20495;-66
2020/12/18 11:23:35;;;;;;;65.43;10.30;;;24.10;1.00;;;;;;5038027;28;20444;-65
2020/12/18 11:26:02;;;;;;;63.07;10.10;;;24.00;1.00;;;;;;5050078;28;20453;-66
2020/12/18 11:28:28;;;;;;;65.23;9.30;;;24.10;1.00;;;;;;5053338;28;20529;-66
2020/12/18 11:30:55;;;;;;;65.03;9.87;;;24.30;1.00;;;;;;5053201;28;20444;-66
2020/12/18 11:33:21;;;;;;;64.53;10.40;;;24.50;1.00;;;;;;5053235;28;20487;-66
2020/12/18 11:35:48;;;;;;;64.00;10.07;;;24.70;1.00;;;;;;5053541;28;20793;-66
2020/12/18 11:38:15;;;;;;;63.37;10.70;;;24.90;1.00;;;;;;5053139;28;20477;-66
2020/12/18 11:40:41;;;;;;;66.80;10.60;;;25.00;1.00;;;;;;5052961;28;20494;-66
2020/12/18 11:43:08;;;;;;;64.70;10.70;;;25.20;1.00;;;;;;5053173;28;20484;-67
2020/12/18 11:45:34;;;;;;;63.60;10.70;;;25.10;1.00;;;;;;5054065;28;20456;-67
2020/12/18 11:48:00;;;;;;;63.67;9.00;;;25.10;1.00;;;;;;5053681;28;21089;-66
2020/12/18 11:50:28;;;;;;;63.77;10.17;;;25.30;1.00;;;;;;5052889;28;20448;-66
2020/12/18 11:52:56;;;;;;;65.17;9.90;;;25.40;1.00;;;;;;5052740;28;20940;-67
2020/12/18 11:55:23;;;;;;;63.33;9.90;;;25.80;1.00;;;;;;5052795;28;20455;-66
2020/12/18 11:57:50;;;;;;;61.67;8.83;;;26.10;1.00;;;;;;5052810;28;20502;-67
2020/12/18 12:00:19;;;;;;;63.97;9.97;;;26.10;1.00;;;;;;5052980;28;20498;-66
2020/12/18 12:02:46;;;;;;;62.83;9.80;;;26.30;1.00;;;;;;5052752;28;20814;-66
2020/12/18 12:05:13;;;;;;;62.73;9.97;;;26.50;1.00;;;;;;5052509;28;20515;-67
2020/12/18 12:07:39;;;;;;;63.40;9.30;;;27.10;1.00;;;;;;5052705;28;20445;-66
2020/12/18 12:10:06;;;;;;;64.10;9.67;;;27.50;1.00;;;;;;5052422;28;20475;-67
2020/12/18 12:12:33;;;;;;;62.67;9.67;;;27.90;1.00;;;;;;5052142;28;20461;-67
2020/12/18 12:14:59;;;;;;;68.93;10.43;;;28.00;1.00;;;;;;5052251;28;20448;-66
2020/12/18 12:17:25;;;;;;;64.10;9.57;;;28.10;1.00;;;;;;5052514;28;20454;-66
2020/12/18 12:19:51;;;;;;;66.63;9.03;;;28.40;1.00;;;;;;5051985;28;20541;-66
2020/12/18 12:22:18;;;;;;;63.73;9.17;;;28.50;1.00;;;;;;5052029;28;20492;-66
2020/12/18 12:24:44;;;;;;;62.57;9.70;;;28.60;1.00;;;;;;5052303;28;20459;-66
2020/12/18 12:27:13;;;;;;;61.70;9.40;;;28.90;1.00;;;;;;5052137;28;20455;-66
2020/12/18 12:29:39;;;;;;;63.30;9.20;;;29.10;1.00;;;;;;5052035;28;21000;-68
2020/12/18 12:32:06;;;;;;;63.20;9.20;;;29.30;1.00;;;;;;5051891;28;20533;-66
2020/12/18 12:34:33;;;;;;;63.97;9.20;;;29.40;1.00;;;;;;5052311;28;20455;-67
2020/12/18 12:37:00;;;;;;;62.93;9.47;;;29.60;1.00;;;;;;5051968;28;20452;-67
2020/12/18 12:39:27;;;;;;;63.77;9.30;;;29.90;1.00;;;;;;5051935;28;20519;-67
2020/12/18 12:41:53;;;;;;;63.27;9.80;;;30.20;1.00;;;;;;5051567;28;20448;-68